< < Back
Terminal Aerodrome Forecast


Current Version              Previous Versions:   1  2  3  4  5  6  7  8  9  

Terminal Aerodrome Forecast

642
FTUS42 KTAE 240520
TAFTLH
TAF
KTLH 240520Z 2406/2506 00000KT P6SM SKC
     FM241500 13005KT P6SM SKC=

Latest METAR

635
SAUS80 KWBC 250900 RRB
MTRTLH
METAR KTLH 250853Z AUTO 00000KT 10SM CLR 18/16 A3013 RMK AO2 SLP202
T01830161 57007 $


USA.gov is the U.S. government's official web portal to all federal, state and local government web resources and services.